sensor_id;sensor_type;location;lat;lon;timestamp;temperature;humidity
33574;DHT22;20085;50.832;4.392;2022-09-27T00:09:51;12.50;99.90
33574;DHT22;20085;50.832;4.392;2022-09-27T00:37:51;12.30;99.90
33574;DHT22;20085;50.832;4.392;2022-09-27T00:51:57;12.10;99.90
33574;DHT22;20085;50.832;4.392;2022-09-27T00:55:43;12.20;99.90
33574;DHT22;20085;50.832;4.392;2022-09-27T01:00:10;12.00;99.90
33574;DHT22;20085;50.832;4.392;2022-09-27T01:03:20;11.90;99.90
33574;DHT22;20085;50.832;4.392;2022-09-27T01:46:22;12.50;99.90
33574;DHT22;20085;50.832;4.392;2022-09-27T01:59:30;12.40;99.90
33574;DHT22;20085;50.832;4.392;2022-09-27T02:07:41;12.40;99.90
33574;DHT22;20085;50.832;4.392;2022-09-27T02:23:48;12.30;99.90
33574;DHT22;20085;50.832;4.392;2022-09-27T02:34:29;12.40;99.90
33574;DHT22;20085;50.832;4.392;2022-09-27T02:56:08;12.40;99.90
33574;DHT22;20085;50.832;4.392;2022-09-27T03:04:44;12.30;99.90
33574;DHT22;20085;50.832;4.392;2022-09-27T03:07:59;12.30;99.90
33574;DHT22;20085;50.832;4.392;2022-09-27T03:11:29;12.30;99.90
33574;DHT22;20085;50.832;4.392;2022-09-27T03:14:16;12.40;99.90
33574;DHT22;20085;50.832;4.392;2022-09-27T03:17:43;12.30;99.90
33574;DHT22;20085;50.832;4.392;2022-09-27T03:20:13;12.30;99.90
33574;DHT22;20085;50.832;4.392;2022-09-27T03:22:44;12.40;99.90
33574;DHT22;20085;50.832;4.392;2022-09-27T03:25:50;12.40;99.90
33574;DHT22;20085;50.832;4.392;2022-09-27T03:35:10;12.20;99.90
33574;DHT22;20085;50.832;4.392;2022-09-27T03:37:37;12.10;99.90
33574;DHT22;20085;50.832;4.392;2022-09-27T03:40:05;12.10;99.90
33574;DHT22;20085;50.832;4.392;2022-09-27T03:42:31;12.10;99.90
33574;DHT22;20085;50.832;4.392;2022-09-27T03:45:10;12.20;99.90
33574;DHT22;20085;50.832;4.392;2022-09-27T03:50:37;12.20;99.90
33574;DHT22;20085;50.832;4.392;2022-09-27T03:53:41;12.20;99.90
33574;DHT22;20085;50.832;4.392;2022-09-27T03:59:14;12.20;99.90
33574;DHT22;20085;50.832;4.392;2022-09-27T04:01:42;12.30;99.90
33574;DHT22;20085;50.832;4.392;2022-09-27T04:04:11;12.30;99.90
33574;DHT22;20085;50.832;4.392;2022-09-27T04:12:53;12.20;99.90
33574;DHT22;20085;50.832;4.392;2022-09-27T04:15:59;12.30;99.90
33574;DHT22;20085;50.832;4.392;2022-09-27T04:19:03;12.20;99.90
33574;DHT22;20085;50.832;4.392;2022-09-27T04:21:54;12.10;99.90
33574;DHT22;20085;50.832;4.392;2022-09-27T04:25:18;12.10;99.90
33574;DHT22;20085;50.832;4.392;2022-09-27T04:28:49;12.10;99.90
33574;DHT22;20085;50.832;4.392;2022-09-27T04:39:05;12.00;99.90
33574;DHT22;20085;50.832;4.392;2022-09-27T04:45:39;11.90;99.90
33574;DHT22;20085;50.832;4.392;2022-09-27T05:05:26;11.80;99.90
33574;DHT22;20085;50.832;4.392;2022-09-27T05:14:47;11.90;99.90
33574;DHT22;20085;50.832;4.392;2022-09-27T05:18:14;11.80;99.90
33574;DHT22;20085;50.832;4.392;2022-09-27T05:24:01;11.90;99.90
33574;DHT22;20085;50.832;4.392;2022-09-27T05:26:27;12.00;99.90
33574;DHT22;20085;50.832;4.392;2022-09-27T05:28:52;11.80;99.90
33574;DHT22;20085;50.832;4.392;2022-09-27T05:31:18;11.80;99.90
33574;DHT22;20085;50.832;4.392;2022-09-27T05:33:44;11.90;99.90
33574;DHT22;20085;50.832;4.392;2022-09-27T05:36:09;11.80;99.90
33574;DHT22;20085;50.832;4.392;2022-09-27T05:38:36;11.70;99.90
33574;DHT22;20085;50.832;4.392;2022-09-27T05:41:02;11.70;99.90
33574;DHT22;20085;50.832;4.392;2022-09-27T05:43:28;11.80;99.90
33574;DHT22;20085;50.832;4.392;2022-09-27T05:45:54;11.70;99.90
33574;DHT22;20085;50.832;4.392;2022-09-27T05:48:19;11.70;99.90
33574;DHT22;20085;50.832;4.392;2022-09-27T05:50:46;11.60;99.90
33574;DHT22;20085;50.832;4.392;2022-09-27T05:53:12;11.70;99.90
33574;DHT22;20085;50.832;4.392;2022-09-27T05:55:38;11.70;99.90
33574;DHT22;20085;50.832;4.392;2022-09-27T05:58:08;11.60;99.90
33574;DHT22;20085;50.832;4.392;2022-09-27T06:00:35;11.60;99.90
33574;DHT22;20085;50.832;4.392;2022-09-27T06:03:03;11.60;99.90
33574;DHT22;20085;50.832;4.392;2022-09-27T06:05:33;11.60;99.90
33574;DHT22;20085;50.832;4.392;2022-09-27T06:08:02;11.70;99.90
33574;DHT22;20085;50.832;4.392;2022-09-27T06:10:29;11.60;99.90
33574;DHT22;20085;50.832;4.392;2022-09-27T06:13:03;11.70;99.90
33574;DHT22;20085;50.832;4.392;2022-09-27T06:15:30;11.80;99.90
33574;DHT22;20085;50.832;4.392;2022-09-27T06:18:00;11.80;99.90
33574;DHT22;20085;50.832;4.392;2022-09-27T06:20:26;11.70;99.90
33574;DHT22;20085;50.832;4.392;2022-09-27T06:22:52;11.70;99.90
33574;DHT22;20085;50.832;4.392;2022-09-27T06:25:18;11.80;99.90
33574;DHT22;20085;50.832;4.392;2022-09-27T06:27:44;11.80;99.90
33574;DHT22;20085;50.832;4.392;2022-09-27T06:30:10;11.80;99.90
33574;DHT22;20085;50.832;4.392;2022-09-27T06:32:37;11.80;99.90
33574;DHT22;20085;50.832;4.392;2022-09-27T06:35:03;11.80;99.90
33574;DHT22;20085;50.832;4.392;2022-09-27T06:37:30;11.70;99.90
33574;DHT22;20085;50.832;4.392;2022-09-27T06:39:56;11.70;99.90
33574;DHT22;20085;50.832;4.392;2022-09-27T06:42:21;11.70;99.90
33574;DHT22;20085;50.832;4.392;2022-09-27T06:44:47;11.70;99.90
33574;DHT22;20085;50.832;4.392;2022-09-27T06:47:15;11.70;99.90
33574;DHT22;20085;50.832;4.392;2022-09-27T06:49:41;11.70;99.90
33574;DHT22;20085;50.832;4.392;2022-09-27T06:52:06;11.70;99.90
33574;DHT22;20085;50.832;4.392;2022-09-27T06:54:32;11.70;99.90
33574;DHT22;20085;50.832;4.392;2022-09-27T06:56:58;11.70;99.90
33574;DHT22;20085;50.832;4.392;2022-09-27T06:59:23;11.80;99.90
33574;DHT22;20085;50.832;4.392;2022-09-27T07:02:07;11.70;99.90
33574;DHT22;20085;50.832;4.392;2022-09-27T07:04:33;11.80;99.90
33574;DHT22;20085;50.832;4.392;2022-09-27T07:06:58;11.80;99.90
33574;DHT22;20085;50.832;4.392;2022-09-27T07:09:24;11.70;99.90
33574;DHT22;20085;50.832;4.392;2022-09-27T07:11:49;11.70;99.90
33574;DHT22;20085;50.832;4.392;2022-09-27T07:14:15;11.60;99.90
33574;DHT22;20085;50.832;4.392;2022-09-27T07:16:42;11.60;99.90
33574;DHT22;20085;50.832;4.392;2022-09-27T07:19:08;11.70;99.90
33574;DHT22;20085;50.832;4.392;2022-09-27T07:21:36;11.80;99.90
33574;DHT22;20085;50.832;4.392;2022-09-27T07:24:01;11.80;99.90
33574;DHT22;20085;50.832;4.392;2022-09-27T07:26:27;11.70;99.90
33574;DHT22;20085;50.832;4.392;2022-09-27T07:28:53;11.70;99.90
33574;DHT22;20085;50.832;4.392;2022-09-27T07:31:18;11.70;99.90
33574;DHT22;20085;50.832;4.392;2022-09-27T07:33:44;11.80;99.90
33574;DHT22;20085;50.832;4.392;2022-09-27T07:36:11;11.80;99.90
33574;DHT22;20085;50.832;4.392;2022-09-27T07:38:37;11.80;99.90
33574;DHT22;20085;50.832;4.392;2022-09-27T07:41:10;11.80;99.90
33574;DHT22;20085;50.832;4.392;2022-09-27T07:43:37;11.90;99.90
33574;DHT22;20085;50.832;4.392;2022-09-27T07:46:03;11.90;99.90
33574;DHT22;20085;50.832;4.392;2022-09-27T07:48:28;11.80;99.90
33574;DHT22;20085;50.832;4.392;2022-09-27T07:50:54;11.90;99.90
33574;DHT22;20085;50.832;4.392;2022-09-27T07:53:19;12.00;99.90
33574;DHT22;20085;50.832;4.392;2022-09-27T07:55:52;12.00;99.90
33574;DHT22;20085;50.832;4.392;2022-09-27T07:58:19;11.90;99.90
33574;DHT22;20085;50.832;4.392;2022-09-27T08:00:45;12.00;99.90
33574;DHT22;20085;50.832;4.392;2022-09-27T08:03:12;12.10;99.90
33574;DHT22;20085;50.832;4.392;2022-09-27T08:05:40;12.20;99.90
33574;DHT22;20085;50.832;4.392;2022-09-27T08:08:06;12.10;99.90
33574;DHT22;20085;50.832;4.392;2022-09-27T08:10:32;12.00;99.90
33574;DHT22;20085;50.832;4.392;2022-09-27T08:13:00;12.00;99.90
33574;DHT22;20085;50.832;4.392;2022-09-27T08:15:33;12.00;99.90
33574;DHT22;20085;50.832;4.392;2022-09-27T08:18:05;12.10;99.90
33574;DHT22;20085;50.832;4.392;2022-09-27T08:20:32;12.10;99.90
33574;DHT22;20085;50.832;4.392;2022-09-27T08:22:57;12.10;99.90
33574;DHT22;20085;50.832;4.392;2022-09-27T08:25:23;12.10;99.90
33574;DHT22;20085;50.832;4.392;2022-09-27T08:27:56;12.10;99.90
33574;DHT22;20085;50.832;4.392;2022-09-27T08:30:22;12.10;99.90
33574;DHT22;20085;50.832;4.392;2022-09-27T08:32:47;12.10;99.90
33574;DHT22;20085;50.832;4.392;2022-09-27T08:35:13;12.00;99.90
33574;DHT22;20085;50.832;4.392;2022-09-27T08:37:40;11.90;99.90
33574;DHT22;20085;50.832;4.392;2022-09-27T08:40:06;11.90;99.90
33574;DHT22;20085;50.832;4.392;2022-09-27T08:43:25;12.00;99.90
33574;DHT22;20085;50.832;4.392;2022-09-27T08:45:36;12.10;99.90
33574;DHT22;20085;50.832;4.392;2022-09-27T08:48:04;12.10;99.90
33574;DHT22;20085;50.832;4.392;2022-09-27T08:50:40;12.00;99.90
33574;DHT22;20085;50.832;4.392;2022-09-27T08:55:48;12.10;99.90
33574;DHT22;20085;50.832;4.392;2022-09-27T08:58:35;12.10;99.90
33574;DHT22;20085;50.832;4.392;2022-09-27T09:01:04;12.20;99.90
33574;DHT22;20085;50.832;4.392;2022-09-27T09:03:37;12.30;99.90
33574;DHT22;20085;50.832;4.392;2022-09-27T09:06:14;12.30;99.90
33574;DHT22;20085;50.832;4.392;2022-09-27T09:23:02;12.00;99.90
33574;DHT22;20085;50.832;4.392;2022-09-27T09:28:49;11.80;99.90
33574;DHT22;20085;50.832;4.392;2022-09-27T09:34:15;11.90;99.90
33574;DHT22;20085;50.832;4.392;2022-09-27T09:36:46;12.00;99.90
33574;DHT22;20085;50.832;4.392;2022-09-27T09:39:19;12.10;99.90
33574;DHT22;20085;50.832;4.392;2022-09-27T09:47:14;12.20;99.90
33574;DHT22;20085;50.832;4.392;2022-09-27T09:49:45;12.30;99.90
33574;DHT22;20085;50.832;4.392;2022-09-27T09:52:16;12.30;99.90
33574;DHT22;20085;50.832;4.392;2022-09-27T09:54:59;12.40;99.90
33574;DHT22;20085;50.832;4.392;2022-09-27T09:57:41;12.50;99.90
33574;DHT22;20085;50.832;4.392;2022-09-27T10:00:17;12.70;99.90
33574;DHT22;20085;50.832;4.392;2022-09-27T10:02:44;12.60;99.90
33574;DHT22;20085;50.832;4.392;2022-09-27T10:05:24;12.60;99.90
33574;DHT22;20085;50.832;4.392;2022-09-27T10:07:53;12.60;99.90
33574;DHT22;20085;50.832;4.392;2022-09-27T10:10:20;12.70;99.90
33574;DHT22;20085;50.832;4.392;2022-09-27T10:12:46;12.60;99.90
33574;DHT22;20085;50.832;4.392;2022-09-27T10:15:19;12.60;99.90
33574;DHT22;20085;50.832;4.392;2022-09-27T10:17:50;12.80;99.90
33574;DHT22;20085;50.832;4.392;2022-09-27T10:20:42;12.90;99.90
33574;DHT22;20085;50.832;4.392;2022-09-27T10:23:18;12.90;99.90
33574;DHT22;20085;50.832;4.392;2022-09-27T10:25:54;12.80;99.90
33574;DHT22;20085;50.832;4.392;2022-09-27T10:31:01;12.80;99.90
33574;DHT22;20085;50.832;4.392;2022-09-27T10:33:28;12.90;99.90
33574;DHT22;20085;50.832;4.392;2022-09-27T10:35:56;12.90;99.90
33574;DHT22;20085;50.832;4.392;2022-09-27T10:38:33;12.90;99.90
33574;DHT22;20085;50.832;4.392;2022-09-27T10:41:23;13.00;99.90
33574;DHT22;20085;50.832;4.392;2022-09-27T10:43:49;13.00;99.90
33574;DHT22;20085;50.832;4.392;2022-09-27T10:46:23;13.00;99.90
33574;DHT22;20085;50.832;4.392;2022-09-27T10:49:08;13.10;99.90
33574;DHT22;20085;50.832;4.392;2022-09-27T10:51:35;13.10;99.90
33574;DHT22;20085;50.832;4.392;2022-09-27T10:54:01;13.10;99.90
33574;DHT22;20085;50.832;4.392;2022-09-27T10:56:32;13.10;99.90
33574;DHT22;20085;50.832;4.392;2022-09-27T10:58:59;13.20;99.90
33574;DHT22;20085;50.832;4.392;2022-09-27T11:01:42;13.20;99.90
33574;DHT22;20085;50.832;4.392;2022-09-27T11:04:32;13.20;99.90
33574;DHT22;20085;50.832;4.392;2022-09-27T11:07:12;13.30;99.90
33574;DHT22;20085;50.832;4.392;2022-09-27T11:09:58;13.30;99.90
33574;DHT22;20085;50.832;4.392;2022-09-27T11:12:28;13.40;99.90
33574;DHT22;20085;50.832;4.392;2022-09-27T11:15:04;13.30;99.90
33574;DHT22;20085;50.832;4.392;2022-09-27T11:17:47;13.30;99.90
33574;DHT22;20085;50.832;4.392;2022-09-27T11:20:30;13.20;99.90
33574;DHT22;20085;50.832;4.392;2022-09-27T11:25:49;13.10;99.90
33574;DHT22;20085;50.832;4.392;2022-09-27T11:34:27;13.20;99.90
33574;DHT22;20085;50.832;4.392;2022-09-27T11:37:15;13.20;99.90
33574;DHT22;20085;50.832;4.392;2022-09-27T11:40:36;13.40;99.90
33574;DHT22;20085;50.832;4.392;2022-09-27T11:52:49;13.70;99.60
33574;DHT22;20085;50.832;4.392;2022-09-27T11:58:03;13.80;99.80
33574;DHT22;20085;50.832;4.392;2022-09-27T12:10:28;13.60;99.60
33574;DHT22;20085;50.832;4.392;2022-09-27T12:13:56;13.70;99.40
33574;DHT22;20085;50.832;4.392;2022-09-27T12:16:52;13.80;99.50
33574;DHT22;20085;50.832;4.392;2022-09-27T12:26:45;14.10;99.10
33574;DHT22;20085;50.832;4.392;2022-09-27T12:32:47;14.20;97.50
33574;DHT22;20085;50.832;4.392;2022-09-27T12:35:38;14.50;98.10
33574;DHT22;20085;50.832;4.392;2022-09-27T12:38:16;14.60;97.70
33574;DHT22;20085;50.832;4.392;2022-09-27T12:40:48;14.70;96.80
33574;DHT22;20085;50.832;4.392;2022-09-27T12:43:19;14.90;97.00
33574;DHT22;20085;50.832;4.392;2022-09-27T12:46:27;15.10;96.40
33574;DHT22;20085;50.832;4.392;2022-09-27T12:51:35;15.10;96.20
33574;DHT22;20085;50.832;4.392;2022-09-27T12:54:30;15.00;95.70
33574;DHT22;20085;50.832;4.392;2022-09-27T13:00:25;15.00;96.60
33574;DHT22;20085;50.832;4.392;2022-09-27T13:03:25;14.80;97.70
33574;DHT22;20085;50.832;4.392;2022-09-27T13:06:31;14.40;99.90
33574;DHT22;20085;50.832;4.392;2022-09-27T13:12:18;14.40;99.90
33574;DHT22;20085;50.832;4.392;2022-09-27T13:31:10;15.00;98.10
33574;DHT22;20085;50.832;4.392;2022-09-27T13:33:53;15.20;97.10
33574;DHT22;20085;50.832;4.392;2022-09-27T13:36:28;15.20;97.00
33574;DHT22;20085;50.832;4.392;2022-09-27T13:53:11;15.10;97.40
33574;DHT22;20085;50.832;4.392;2022-09-27T13:55:46;15.20;97.50
33574;DHT22;20085;50.832;4.392;2022-09-27T14:00:52;15.10;97.20
33574;DHT22;20085;50.832;4.392;2022-09-27T14:03:44;15.30;97.30
33574;DHT22;20085;50.832;4.392;2022-09-27T14:06:18;15.30;97.20
33574;DHT22;20085;50.832;4.392;2022-09-27T14:11:43;15.40;96.90
33574;DHT22;20085;50.832;4.392;2022-09-27T14:14:16;15.40;96.80
33574;DHT22;20085;50.832;4.392;2022-09-27T14:16:44;15.30;96.90
33574;DHT22;20085;50.832;4.392;2022-09-27T14:19:17;15.30;96.80
33574;DHT22;20085;50.832;4.392;2022-09-27T14:21:44;15.20;96.70
33574;DHT22;20085;50.832;4.392;2022-09-27T14:24:41;15.20;96.60
33574;DHT22;20085;50.832;4.392;2022-09-27T14:29:42;15.30;96.30
33574;DHT22;20085;50.832;4.392;2022-09-27T14:32:11;15.40;96.40
33574;DHT22;20085;50.832;4.392;2022-09-27T14:34:38;15.30;96.00
33574;DHT22;20085;50.832;4.392;2022-09-27T14:37:04;15.40;96.10
33574;DHT22;20085;50.832;4.392;2022-09-27T14:39:56;15.30;96.50
33574;DHT22;20085;50.832;4.392;2022-09-27T14:42:25;15.30;95.90
33574;DHT22;20085;50.832;4.392;2022-09-27T14:44:51;15.20;96.00
33574;DHT22;20085;50.832;4.392;2022-09-27T14:47:25;15.00;96.20
33574;DHT22;20085;50.832;4.392;2022-09-27T14:49:56;14.90;96.50
33574;DHT22;20085;50.832;4.392;2022-09-27T14:52:26;15.00;97.40
33574;DHT22;20085;50.832;4.392;2022-09-27T14:54:56;14.90;99.90
33574;DHT22;20085;50.832;4.392;2022-09-27T14:57:23;14.80;99.90
33574;DHT22;20085;50.832;4.392;2022-09-27T14:59:50;14.70;99.90
33574;DHT22;20085;50.832;4.392;2022-09-27T15:02:25;14.60;99.90
33574;DHT22;20085;50.832;4.392;2022-09-27T15:04:51;14.60;99.90
33574;DHT22;20085;50.832;4.392;2022-09-27T15:07:19;14.60;99.90
33574;DHT22;20085;50.832;4.392;2022-09-27T15:09:46;14.60;99.90
33574;DHT22;20085;50.832;4.392;2022-09-27T15:12:17;14.50;99.90
33574;DHT22;20085;50.832;4.392;2022-09-27T15:14:56;14.60;99.90
33574;DHT22;20085;50.832;4.392;2022-09-27T15:20:52;14.40;99.90
33574;DHT22;20085;50.832;4.392;2022-09-27T15:23:26;14.40;99.90
33574;DHT22;20085;50.832;4.392;2022-09-27T15:28:56;14.40;99.90
33574;DHT22;20085;50.832;4.392;2022-09-27T15:31:34;14.40;99.90
33574;DHT22;20085;50.832;4.392;2022-09-27T15:34:02;14.40;99.90
33574;DHT22;20085;50.832;4.392;2022-09-27T15:39:40;14.50;99.90
33574;DHT22;20085;50.832;4.392;2022-09-27T15:42:07;14.60;99.90
33574;DHT22;20085;50.832;4.392;2022-09-27T15:44:53;14.60;99.90
33574;DHT22;20085;50.832;4.392;2022-09-27T15:47:40;14.50;99.90
33574;DHT22;20085;50.832;4.392;2022-09-27T15:52:53;14.60;99.90
33574;DHT22;20085;50.832;4.392;2022-09-27T15:55:24;14.50;99.90
33574;DHT22;20085;50.832;4.392;2022-09-27T15:58:15;14.50;99.90
33574;DHT22;20085;50.832;4.392;2022-09-27T16:00:55;14.50;99.90
33574;DHT22;20085;50.832;4.392;2022-09-27T16:03:22;14.50;99.90
33574;DHT22;20085;50.832;4.392;2022-09-27T16:05:48;14.60;99.90
33574;DHT22;20085;50.832;4.392;2022-09-27T16:08:14;14.60;99.90
33574;DHT22;20085;50.832;4.392;2022-09-27T16:10:49;14.70;99.90
33574;DHT22;20085;50.832;4.392;2022-09-27T16:13:15;14.70;99.90
33574;DHT22;20085;50.832;4.392;2022-09-27T16:15:40;14.70;99.90
33574;DHT22;20085;50.832;4.392;2022-09-27T16:18:07;14.80;99.90
33574;DHT22;20085;50.832;4.392;2022-09-27T16:20:32;14.80;99.90
33574;DHT22;20085;50.832;4.392;2022-09-27T16:22:58;14.90;99.90
33574;DHT22;20085;50.832;4.392;2022-09-27T16:25:24;15.00;99.90
33574;DHT22;20085;50.832;4.392;2022-09-27T16:27:50;14.90;99.90
33574;DHT22;20085;50.832;4.392;2022-09-27T16:30:17;14.80;99.90
33574;DHT22;20085;50.832;4.392;2022-09-27T16:32:44;14.90;99.90
33574;DHT22;20085;50.832;4.392;2022-09-27T16:35:11;14.90;99.90
33574;DHT22;20085;50.832;4.392;2022-09-27T16:37:38;14.90;99.90
33574;DHT22;20085;50.832;4.392;2022-09-27T16:40:05;14.90;99.90
33574;DHT22;20085;50.832;4.392;2022-09-27T16:42:31;14.80;99.90
33574;DHT22;20085;50.832;4.392;2022-09-27T16:44:57;14.80;99.90
33574;DHT22;20085;50.832;4.392;2022-09-27T16:47:22;14.80;99.90
33574;DHT22;20085;50.832;4.392;2022-09-27T16:49:48;14.90;99.90
33574;DHT22;20085;50.832;4.392;2022-09-27T16:52:32;14.90;99.90
33574;DHT22;20085;50.832;4.392;2022-09-27T16:54:59;14.80;99.90
33574;DHT22;20085;50.832;4.392;2022-09-27T16:57:25;14.80;99.90
33574;DHT22;20085;50.832;4.392;2022-09-27T16:59:54;14.80;99.90
33574;DHT22;20085;50.832;4.392;2022-09-27T17:02:23;14.80;99.90
33574;DHT22;20085;50.832;4.392;2022-09-27T17:04:49;14.80;99.90
33574;DHT22;20085;50.832;4.392;2022-09-27T17:07:15;14.90;99.90
33574;DHT22;20085;50.832;4.392;2022-09-27T17:09:40;14.90;99.90
33574;DHT22;20085;50.832;4.392;2022-09-27T17:12:06;14.90;99.90
33574;DHT22;20085;50.832;4.392;2022-09-27T17:14:32;14.90;99.90
33574;DHT22;20085;50.832;4.392;2022-09-27T17:16:57;14.90;99.90
33574;DHT22;20085;50.832;4.392;2022-09-27T17:19:23;14.90;99.90
33574;DHT22;20085;50.832;4.392;2022-09-27T17:21:49;14.90;99.90
33574;DHT22;20085;50.832;4.392;2022-09-27T17:24:15;14.90;99.90
33574;DHT22;20085;50.832;4.392;2022-09-27T17:26:41;14.80;99.90
33574;DHT22;20085;50.832;4.392;2022-09-27T17:29:09;14.80;99.90
33574;DHT22;20085;50.832;4.392;2022-09-27T17:31:37;14.70;99.90
33574;DHT22;20085;50.832;4.392;2022-09-27T17:34:03;14.80;99.90
33574;DHT22;20085;50.832;4.392;2022-09-27T17:36:30;14.80;99.90
33574;DHT22;20085;50.832;4.392;2022-09-27T17:39:00;14.80;99.90
33574;DHT22;20085;50.832;4.392;2022-09-27T17:41:27;14.80;99.90
33574;DHT22;20085;50.832;4.392;2022-09-27T17:43:55;14.70;99.90
33574;DHT22;20085;50.832;4.392;2022-09-27T17:46:27;14.80;99.90
33574;DHT22;20085;50.832;4.392;2022-09-27T17:48:53;14.80;99.90
33574;DHT22;20085;50.832;4.392;2022-09-27T17:51:39;14.80;99.90
33574;DHT22;20085;50.832;4.392;2022-09-27T17:54:06;14.80;99.90
33574;DHT22;20085;50.832;4.392;2022-09-27T17:56:35;14.90;99.90
33574;DHT22;20085;50.832;4.392;2022-09-27T17:59:01;14.70;99.90
33574;DHT22;20085;50.832;4.392;2022-09-27T18:01:27;14.60;99.90
33574;DHT22;20085;50.832;4.392;2022-09-27T18:03:59;14.50;99.90
33574;DHT22;20085;50.832;4.392;2022-09-27T18:06:26;14.50;99.90
33574;DHT22;20085;50.832;4.392;2022-09-27T18:08:54;14.50;99.90
33574;DHT22;20085;50.832;4.392;2022-09-27T18:11:22;14.60;99.90
33574;DHT22;20085;50.832;4.392;2022-09-27T18:13:55;14.50;99.90
33574;DHT22;20085;50.832;4.392;2022-09-27T18:16:49;14.40;99.90
33574;DHT22;20085;50.832;4.392;2022-09-27T18:36:31;13.60;99.90
33574;DHT22;20085;50.832;4.392;2022-09-27T18:39:35;13.60;99.90
33574;DHT22;20085;50.832;4.392;2022-09-27T18:45:16;13.70;99.90
33574;DHT22;20085;50.832;4.392;2022-09-27T18:47:42;13.80;99.90
33574;DHT22;20085;50.832;4.392;2022-09-27T18:54:03;13.80;99.90
33574;DHT22;20085;50.832;4.392;2022-09-27T19:09:46;13.70;99.90
33574;DHT22;20085;50.832;4.392;2022-09-27T19:19:55;13.60;99.90
33574;DHT22;20085;50.832;4.392;2022-09-27T20:11:13;13.20;99.90
33574;DHT22;20085;50.832;4.392;2022-09-27T20:14:48;13.30;99.90
33574;DHT22;20085;50.832;4.392;2022-09-27T20:24:44;13.30;99.90
33574;DHT22;20085;50.832;4.392;2022-09-27T20:34:55;13.40;99.90
33574;DHT22;20085;50.832;4.392;2022-09-27T20:38:01;13.30;99.90
33574;DHT22;20085;50.832;4.392;2022-09-27T20:57:17;13.40;99.90
33574;DHT22;20085;50.832;4.392;2022-09-27T21:04:17;13.40;99.90
33574;DHT22;20085;50.832;4.392;2022-09-27T21:14:36;13.40;99.90
33574;DHT22;20085;50.832;4.392;2022-09-27T21:42:55;13.20;99.90
33574;DHT22;20085;50.832;4.392;2022-09-27T21:58:21;13.30;99.90
33574;DHT22;20085;50.832;4.392;2022-09-27T23:31:09;12.60;99.90
33574;DHT22;20085;50.832;4.392;2022-09-27T23:45:57;12.40;99.90
33574;DHT22;20085;50.832;4.392;2022-09-27T23:54:39;12.30;99.90
33574;DHT22;20085;50.832;4.392;2022-09-27T23:58:05;12.20;99.90
